Time;durP1;ratioP1;P1;durP2;ratioP2;P2;SDS_P1;SDS_P2;PMS_P1;PMS_P2;Temp;Humidity;BMP_temperature;BMP_pressure;BME280_temperature;BME280_humidity;BME280_pressure;Samples;Min_cycle;Max_cycle;Signal;HPM_P1;HPM_P2
2024/02/23 00:01:41;;;;;;;0.47;0.10;;;7.50;1.00;;;;;;5085164;28;20495;-60
2024/02/23 00:04:09;;;;;;;0.50;0.10;;;7.40;1.00;;;;;;5083473;28;21000;-60
2024/02/23 00:06:37;;;;;;;0.60;0.20;;;7.40;1.00;;;;;;5084215;28;20934;-59
2024/02/23 00:09:04;;;;;;;0.30;0.10;;;7.30;1.00;;;;;;5085073;28;20534;-60
2024/02/23 00:11:33;;;;;;;1.00;0.10;;;7.30;1.00;;;;;;5082379;28;20517;-60
2024/02/23 00:14:00;;;;;;;0.30;0.10;;;7.20;1.00;;;;;;5084496;28;20422;-60
2024/02/23 00:16:27;;;;;;;0.30;0.10;;;7.20;1.00;;;;;;5088666;28;20410;-59
2024/02/23 00:18:54;;;;;;;0.30;0.10;;;7.10;1.00;;;;;;5088237;28;20446;-61
2024/02/23 00:21:21;;;;;;;0.30;0.10;;;7.10;1.00;;;;;;5081424;28;20518;-59
2024/02/23 00:23:49;;;;;;;2.22;0.30;;;7.20;1.00;;;;;;5087177;28;20514;-59
2024/02/23 00:26:16;;;;;;;0.80;0.30;;;7.20;1.00;;;;;;5088075;28;20429;-60
2024/02/23 00:28:43;;;;;;;0.40;0.20;;;7.30;1.00;;;;;;5085766;28;20465;-60
2024/02/23 00:31:09;;;;;;;0.40;0.10;;;7.30;1.00;;;;;;5084015;28;20845;-59
2024/02/23 00:33:37;;;;;;;0.43;0.17;;;7.40;1.00;;;;;;5077878;28;20515;-59
2024/02/23 00:36:04;;;;;;;0.40;0.10;;;7.50;1.00;;;;;;5069245;28;20435;-60
2024/02/23 00:38:31;;;;;;;0.30;0.10;;;7.60;1.00;;;;;;5071894;28;20518;-60
2024/02/23 00:41:00;;;;;;;2.63;0.25;;;7.50;1.00;;;;;;5075200;28;20510;-60
2024/02/23 00:43:29;;;;;;;0.70;0.10;;;7.60;1.00;;;;;;5076606;28;20447;-60
2024/02/23 00:45:56;;;;;;;4.30;0.40;;;7.70;1.00;;;;;;5078420;28;20431;-60
2024/02/23 00:48:22;;;;;;;0.50;0.10;;;7.70;99.90;;;;;;5078043;28;20538;-60
2024/02/23 00:50:49;;;;;;;0.30;0.10;;;7.50;99.90;;;;;;5078141;28;20519;-60
2024/02/23 00:53:17;;;;;;;0.40;0.10;;;7.40;1.00;;;;;;5076959;28;20511;-61
2024/02/23 00:55:44;;;;;;;0.30;0.10;;;7.70;1.00;;;;;;5077906;28;20510;-59
2024/02/23 00:58:12;;;;;;;0.30;0.10;;;7.80;1.00;;;;;;5072305;28;20786;-58
2024/02/23 01:00:39;;;;;;;1.40;0.20;;;7.80;15.10;;;;;;5075282;28;20504;-59
2024/02/23 01:03:06;;;;;;;1.70;0.30;;;7.70;41.80;;;;;;5077828;28;20463;-59
2024/02/23 01:05:33;;;;;;;1.10;0.20;;;7.50;99.90;;;;;;5076636;28;20510;-60
2024/02/23 01:08:00;;;;;;;0.30;0.10;;;7.40;99.90;;;;;;5071410;28;20439;-60
2024/02/23 01:10:27;;;;;;;0.30;0.10;;;7.70;1.00;;;;;;5076812;28;20443;-60
2024/02/23 01:12:54;;;;;;;0.40;0.10;;;7.90;1.00;;;;;;5076251;28;20435;-60
2024/02/23 01:15:22;;;;;;;0.90;0.20;;;7.70;99.90;;;;;;5074482;28;20534;-60
2024/02/23 01:17:49;;;;;;;0.30;0.10;;;7.40;99.90;;;;;;5069583;28;20515;-60
2024/02/23 01:20:17;;;;;;;0.77;0.30;;;7.50;1.00;;;;;;5075011;28;20431;-60
2024/02/23 01:22:43;;;;;;;0.40;0.20;;;7.40;1.00;;;;;;5071876;28;20451;-59
2024/02/23 01:25:10;;;;;;;3.20;0.40;;;7.40;1.00;;;;;;5075592;28;21085;-59
2024/02/23 01:27:38;;;;;;;0.80;0.10;;;7.30;1.00;;;;;;5071620;28;20912;-60
2024/02/23 01:30:06;;;;;;;0.40;0.10;;;7.30;1.00;;;;;;5067158;28;20739;-59
2024/02/23 01:32:34;;;;;;;3.92;0.30;;;7.20;1.00;;;;;;5069297;28;20443;-59
2024/02/23 01:35:01;;;;;;;0.45;0.10;;;7.20;1.00;;;;;;5073320;28;20435;-59
2024/02/23 01:37:28;;;;;;;0.50;0.20;;;7.40;1.00;;;;;;5071829;28;20503;-59
2024/02/23 01:39:55;;;;;;;0.67;0.10;;;7.40;1.00;;;;;;5076746;28;20502;-59
2024/02/23 01:42:23;;;;;;;1.27;0.50;;;7.40;1.00;;;;;;5075120;28;20456;-59
2024/02/23 01:44:50;;;;;;;0.90;0.40;;;7.30;1.00;;;;;;5075690;28;20435;-59
2024/02/23 01:47:17;;;;;;;0.68;0.20;;;7.20;1.00;;;;;;5076827;28;20518;-59
2024/02/23 01:49:47;;;;;;;0.90;0.20;;;7.10;1.00;;;;;;5076567;28;20435;-59
2024/02/23 01:52:15;;;;;;;0.40;0.20;;;7.10;1.00;;;;;;5072332;28;20503;-59
2024/02/23 01:54:42;;;;;;;0.50;0.20;;;7.10;1.00;;;;;;5071483;28;20743;-60
2024/02/23 01:57:10;;;;;;;0.40;0.10;;;7.10;1.00;;;;;;5070364;28;20424;-59
2024/02/23 01:59:38;;;;;;;0.68;0.20;;;7.20;1.00;;;;;;5072325;28;20532;-59
2024/02/23 02:02:06;;;;;;;0.30;0.10;;;7.10;1.00;;;;;;5071855;28;20546;-59
2024/02/23 02:04:33;;;;;;;0.50;0.10;;;7.10;1.00;;;;;;5064986;28;20448;-60
2024/02/23 02:07:02;;;;;;;0.47;0.20;;;7.10;1.00;;;;;;5072267;28;20786;-60
2024/02/23 02:09:29;;;;;;;0.40;0.20;;;7.10;1.00;;;;;;5067988;28;20620;-60
2024/02/23 02:11:56;;;;;;;1.25;0.20;;;7.10;1.00;;;;;;5070469;28;21066;-60
2024/02/23 02:14:22;;;;;;;1.10;0.10;;;7.10;1.00;;;;;;5075242;28;20467;-62
2024/02/23 02:16:49;;;;;;;1.58;0.30;;;7.30;1.00;;;;;;5075909;28;20826;-61
2024/02/23 02:19:17;;;;;;;0.80;0.20;;;7.30;1.00;;;;;;5076248;28;20515;-60
2024/02/23 02:21:44;;;;;;;1.10;0.20;;;7.30;1.00;;;;;;5076160;28;20416;-60
2024/02/23 02:24:12;;;;;;;0.70;0.20;;;7.30;1.00;;;;;;5076253;28;20768;-60
2024/02/23 02:26:39;;;;;;;1.20;0.10;;;7.30;1.00;;;;;;5076172;28;20701;-61
2024/02/23 02:29:06;;;;;;;0.90;0.20;;;7.40;1.00;;;;;;5072370;28;20525;-61
2024/02/23 02:31:37;;;;;;;0.60;0.20;;;7.50;1.00;;;;;;5074191;28;20512;-60
2024/02/23 02:34:04;;;;;;;0.40;0.10;;;7.50;1.00;;;;;;5085621;28;20423;-61
2024/02/23 02:36:30;;;;;;;1.40;0.20;;;7.60;99.90;;;;;;5082116;28;20525;-61
2024/02/23 02:38:57;;;;;;;0.30;0.10;;;7.60;1.00;;;;;;5084844;28;20512;-61
2024/02/23 02:41:30;;;;;;;0.30;0.10;;;7.90;99.90;;;;;;5087237;28;20457;-61
2024/02/23 02:43:57;;;;;;;0.60;0.20;;;8.00;1.00;;;;;;5083352;28;20429;-61
2024/02/23 02:46:24;;;;;;;1.52;0.20;;;8.00;1.00;;;;;;5086522;28;20499;-62
2024/02/23 02:48:51;;;;;;;0.70;0.30;;;7.80;1.00;;;;;;5084730;28;20478;-62
2024/02/23 02:51:18;;;;;;;1.20;0.10;;;7.70;99.90;;;;;;5086307;28;20508;-61
2024/02/23 02:53:45;;;;;;;0.40;0.20;;;7.40;1.00;;;;;;5083684;28;20437;-61
2024/02/23 02:56:12;;;;;;;1.25;0.30;;;7.40;1.00;;;;;;5083777;28;20433;-61
2024/02/23 02:58:40;;;;;;;1.48;0.20;;;7.40;1.00;;;;;;5080518;28;20495;-61
2024/02/23 03:01:07;;;;;;;0.40;0.10;;;7.40;1.00;;;;;;5085244;28;20477;-60
2024/02/23 03:03:34;;;;;;;1.10;0.30;;;7.50;99.90;;;;;;5082711;28;20423;-62
2024/02/23 03:06:01;;;;;;;1.27;0.20;;;7.40;1.00;;;;;;5085979;28;20512;-61
2024/02/23 03:08:27;;;;;;;0.30;0.10;;;7.40;99.90;;;;;;5083586;28;20546;-62
2024/02/23 03:10:55;;;;;;;0.30;0.10;;;7.30;1.00;;;;;;5083954;28;20442;-62
2024/02/23 03:13:21;;;;;;;0.80;0.20;;;7.30;7.80;;;;;;5082935;28;20863;-62
2024/02/23 03:15:50;;;;;;;1.10;0.10;;;7.20;1.00;;;;;;5082524;28;20875;-63
2024/02/23 03:18:16;;;;;;;0.90;0.10;;;7.20;1.00;;;;;;5085023;28;20425;-61
2024/02/23 03:20:42;;;;;;;1.30;0.20;;;7.30;1.00;;;;;;5082996;28;20474;-62
2024/02/23 03:23:09;;;;;;;0.63;0.17;;;7.30;99.90;;;;;;5080711;28;20438;-62
2024/02/23 03:25:36;;;;;;;1.25;0.10;;;7.60;1.00;;;;;;5084261;28;20502;-61
2024/02/23 03:28:03;;;;;;;0.40;0.10;;;7.70;1.00;;;;;;5083426;28;20423;-61
2024/02/23 03:30:30;;;;;;;0.60;0.10;;;7.60;99.90;;;;;;5083266;28;20870;-61
2024/02/23 03:32:58;;;;;;;0.30;0.10;;;7.60;99.90;;;;;;5083251;28;20518;-61
2024/02/23 03:35:25;;;;;;;0.40;0.10;;;7.60;43.00;;;;;;5085071;28;20711;-62
2024/02/23 03:37:52;;;;;;;1.20;0.20;;;7.60;99.90;;;;;;5086303;28;20448;-61
2024/02/23 03:40:19;;;;;;;0.40;0.10;;;7.50;1.00;;;;;;5085091;28;20726;-60
2024/02/23 03:42:46;;;;;;;0.40;0.10;;;7.40;1.00;;;;;;5083185;28;20854;-61
2024/02/23 03:45:13;;;;;;;0.93;0.10;;;7.60;99.90;;;;;;5080518;28;20714;-61
2024/02/23 03:47:40;;;;;;;0.80;0.10;;;7.40;81.40;;;;;;5082430;28;20852;-61
2024/02/23 03:50:09;;;;;;;1.40;0.10;;;7.40;99.90;;;;;;5087526;28;20756;-61
2024/02/23 03:52:36;;;;;;;0.70;0.10;;;7.30;1.00;;;;;;5089095;28;20492;-61
2024/02/23 03:55:03;;;;;;;0.32;0.20;;;7.20;1.00;;;;;;5089262;28;20412;-61
2024/02/23 03:57:30;;;;;;;0.40;0.10;;;7.20;69.50;;;;;;5087819;28;20776;-61
2024/02/23 03:59:57;;;;;;;0.90;0.10;;;7.00;99.90;;;;;;5088787;28;20843;-61
2024/02/23 04:02:24;;;;;;;0.93;0.10;;;7.00;1.00;;;;;;5085739;28;20456;-61
2024/02/23 04:04:51;;;;;;;0.50;0.20;;;6.90;1.00;;;;;;5087753;28;20447;-61
2024/02/23 04:07:20;;;;;;;0.60;0.10;;;6.90;99.90;;;;;;5087431;28;20423;-60
2024/02/23 04:09:52;;;;;;;0.70;0.10;;;6.80;99.90;;;;;;5088400;28;20429;-60
2024/02/23 04:12:19;;;;;;;0.70;0.10;;;7.00;99.90;;;;;;5085959;28;20867;-60
2024/02/23 04:14:45;;;;;;;0.30;0.10;;;7.10;99.90;;;;;;5084825;28;20935;-60
2024/02/23 04:17:13;;;;;;;0.50;0.10;;;7.00;99.90;;;;;;5084750;28;20460;-59
2024/02/23 04:19:41;;;;;;;0.90;0.10;;;7.30;1.00;;;;;;5086822;28;20409;-59
2024/02/23 04:22:09;;;;;;;0.30;0.10;;;7.10;1.00;;;;;;5087834;28;20775;-59
2024/02/23 04:24:40;;;;;;;1.77;0.17;;;7.20;1.00;;;;;;5085318;28;20462;-58
2024/02/23 04:27:09;;;;;;;0.38;0.10;;;7.20;1.00;;;;;;5088870;28;20505;-59
2024/02/23 04:29:36;;;;;;;0.30;0.10;;;7.10;99.90;;;;;;5083912;28;20442;-60
2024/02/23 04:32:03;;;;;;;0.30;0.10;;;7.10;1.00;;;;;;5086422;28;20425;-59
2024/02/23 04:34:30;;;;;;;0.40;0.10;;;7.00;57.30;;;;;;5088485;28;20417;-62
2024/02/23 04:36:57;;;;;;;0.90;0.10;;;6.90;99.90;;;;;;5086650;28;20416;-59
2024/02/23 04:39:24;;;;;;;1.40;0.20;;;6.80;1.00;;;;;;5086918;28;20516;-59
2024/02/23 04:41:53;;;;;;;0.30;0.10;;;6.90;99.90;;;;;;5087996;28;20438;-60
2024/02/23 04:44:20;;;;;;;0.40;0.10;;;6.90;99.90;;;;;;5086017;28;20546;-59
2024/02/23 04:46:48;;;;;;;0.32;0.10;;;7.10;1.00;;;;;;5085879;28;20493;-59
2024/02/23 04:49:15;;;;;;;0.30;0.10;;;7.10;88.40;;;;;;5082290;28;20428;-59
2024/02/23 04:51:42;;;;;;;0.30;0.10;;;7.00;34.20;;;;;;5085277;28;20930;-59
2024/02/23 04:54:08;;;;;;;0.40;0.10;;;7.20;87.90;;;;;;5086189;28;20518;-60
2024/02/23 04:56:36;;;;;;;0.60;0.20;;;6.90;1.00;;;;;;5081325;28;20912;-59
2024/02/23 04:59:04;;;;;;;0.40;0.20;;;6.90;1.00;;;;;;5085174;28;20764;-60
2024/02/23 05:01:36;;;;;;;0.65;0.10;;;7.00;1.00;;;;;;5086621;28;20904;-59
2024/02/23 05:04:04;;;;;;;0.30;0.10;;;6.90;1.00;;;;;;5087323;28;20431;-59
2024/02/23 05:06:31;;;;;;;0.30;0.10;;;6.80;1.00;;;;;;5086164;28;20710;-62
2024/02/23 05:08:57;;;;;;;0.80;0.10;;;6.80;1.00;;;;;;5087678;28;20533;-60
2024/02/23 05:11:24;;;;;;;0.40;0.10;;;6.80;1.00;;;;;;5087346;28;20424;-59
2024/02/23 05:13:51;;;;;;;0.90;0.13;;;6.80;1.00;;;;;;5086281;28;20460;-59
2024/02/23 05:16:19;;;;;;;0.40;0.10;;;6.80;99.90;;;;;;5086374;28;20511;-59
2024/02/23 05:18:47;;;;;;;1.40;0.10;;;7.00;99.90;;;;;;5086180;28;20773;-59
2024/02/23 05:21:15;;;;;;;1.40;0.10;;;7.00;1.00;;;;;;5087929;28;20525;-59
2024/02/23 05:23:42;;;;;;;0.50;0.20;;;6.90;1.00;;;;;;5086661;28;20427;-59
2024/02/23 05:26:10;;;;;;;0.40;0.10;;;6.70;1.00;;;;;;5089199;28;20823;-59
2024/02/23 05:28:37;;;;;;;0.30;0.10;;;6.70;1.00;;;;;;5077313;28;20432;-59
2024/02/23 05:31:05;;;;;;;0.40;0.20;;;6.60;1.00;;;;;;5077840;28;20428;-59
2024/02/23 05:33:33;;;;;;;0.40;0.20;;;6.60;1.00;;;;;;5093475;28;20800;-59
2024/02/23 05:36:00;;;;;;;0.40;0.20;;;6.60;99.90;;;;;;5088996;28;20424;-59
2024/02/23 05:38:27;;;;;;;1.50;0.20;;;6.50;99.90;;;;;;5076683;28;20470;-59
2024/02/23 05:40:53;;;;;;;0.70;0.20;;;6.50;99.90;;;;;;5076927;28;20502;-59
2024/02/23 05:43:20;;;;;;;0.40;0.10;;;6.40;1.00;;;;;;5076629;28;20518;-59
2024/02/23 05:45:47;;;;;;;0.40;0.20;;;6.30;50.40;;;;;;5094506;28;20425;-59
2024/02/23 05:48:14;;;;;;;0.73;0.10;;;6.20;99.90;;;;;;5096889;28;20461;-60
2024/02/23 05:50:42;;;;;;;0.90;0.20;;;6.20;99.90;;;;;;5094531;28;20442;-59
2024/02/23 05:53:10;;;;;;;0.50;0.10;;;6.20;99.90;;;;;;5076484;28;20750;-59
2024/02/23 05:55:36;;;;;;;0.40;0.20;;;6.20;1.00;;;;;;5076436;28;20423;-59
2024/02/23 05:58:05;;;;;;;0.30;0.10;;;6.20;1.00;;;;;;5076086;28;20901;-59
2024/02/23 06:00:32;;;;;;;0.45;0.20;;;6.20;99.90;;;;;;5076710;28;20454;-60
2024/02/23 06:02:59;;;;;;;0.40;0.10;;;6.30;99.90;;;;;;5077259;28;20430;-59
2024/02/23 06:05:26;;;;;;;0.32;0.10;;;6.30;1.00;;;;;;5087929;28;20423;-60
2024/02/23 06:07:57;;;;;;;0.30;0.10;;;6.20;1.00;;;;;;5075098;28;20423;-58
2024/02/23 06:10:24;;;;;;;2.80;0.20;;;6.10;1.00;;;;;;5065120;28;20429;-59
2024/02/23 06:12:51;;;;;;;0.30;0.10;;;6.00;1.00;;;;;;5074062;28;20809;-59
2024/02/23 06:15:18;;;;;;;1.50;0.20;;;6.00;99.90;;;;;;5074905;28;20538;-58
2024/02/23 06:17:45;;;;;;;0.40;0.10;;;5.90;99.90;;;;;;5065622;28;20622;-58
2024/02/23 06:20:13;;;;;;;0.85;0.20;;;5.80;28.80;;;;;;5055399;28;20514;-58
2024/02/23 06:22:40;;;;;;;0.77;0.30;;;5.80;1.00;;;;;;5070839;28;20519;-58
2024/02/23 06:25:09;;;;;;;0.40;0.20;;;5.80;47.40;;;;;;5074098;28;20576;-58
2024/02/23 06:27:37;;;;;;;0.60;0.20;;;5.80;1.00;;;;;;5082862;28;20517;-58
2024/02/23 06:30:04;;;;;;;0.70;0.20;;;5.80;1.00;;;;;;5095655;28;20544;-58
2024/02/23 06:32:31;;;;;;;0.43;0.10;;;5.80;99.90;;;;;;5080640;28;20769;-58
2024/02/23 06:34:58;;;;;;;1.95;0.20;;;5.80;1.00;;;;;;5075264;28;20497;-59
2024/02/23 06:37:25;;;;;;;1.70;0.20;;;5.70;99.90;;;;;;5075575;28;20442;-59
2024/02/23 06:39:54;;;;;;;0.50;0.10;;;5.80;99.90;;;;;;5075445;28;20518;-59
2024/02/23 06:42:22;;;;;;;1.10;0.20;;;5.80;99.90;;;;;;5074761;28;20437;-58
2024/02/23 06:44:50;;;;;;;0.50;0.20;;;5.90;1.00;;;;;;5076457;28;20459;-58
2024/02/23 06:47:17;;;;;;;0.30;0.10;;;5.90;99.90;;;;;;5074613;28;20502;-59
2024/02/23 06:49:44;;;;;;;1.00;0.30;;;5.80;1.00;;;;;;5074793;28;20482;-59
2024/02/23 06:52:11;;;;;;;0.60;0.20;;;5.70;1.00;;;;;;5074271;28;20442;-59
2024/02/23 06:54:38;;;;;;;1.25;0.50;;;5.70;1.00;;;;;;5074878;28;20833;-59
2024/02/23 06:57:05;;;;;;;0.50;0.13;;;5.70;1.00;;;;;;5069403;28;20797;-59
2024/02/23 06:59:33;;;;;;;0.68;0.20;;;5.70;1.00;;;;;;5068170;28;20471;-58
2024/02/23 07:02:00;;;;;;;0.40;0.10;;;5.70;1.00;;;;;;5071952;28;20522;-59
2024/02/23 07:04:28;;;;;;;0.80;0.10;;;5.80;1.00;;;;;;5070700;28;20496;-59
2024/02/23 07:06:55;;;;;;;1.08;0.20;;;5.80;1.00;;;;;;5073882;28;20857;-58
2024/02/23 07:09:22;;;;;;;0.40;0.10;;;5.80;1.00;;;;;;5066581;28;20518;-59
2024/02/23 07:11:49;;;;;;;0.40;0.10;;;5.90;1.00;;;;;;5072159;28;20477;-59
2024/02/23 07:14:17;;;;;;;1.43;0.20;;;6.00;1.00;;;;;;5064479;28;20718;-59
2024/02/23 07:16:45;;;;;;;0.50;0.13;;;6.10;1.00;;;;;;5069007;28;20415;-59
2024/02/23 07:19:12;;;;;;;1.93;0.30;;;6.20;1.00;;;;;;5085417;28;20422;-58
2024/02/23 07:21:39;;;;;;;1.60;0.20;;;6.20;1.00;;;;;;5095555;28;20516;-56
2024/02/23 07:24:09;;;;;;;0.40;0.20;;;6.20;99.90;;;;;;5059235;28;20516;-58
2024/02/23 07:26:36;;;;;;;1.70;0.60;;;6.40;1.00;;;;;;5062227;28;20435;-56
2024/02/23 07:29:03;;;;;;;0.60;0.10;;;6.30;99.90;;;;;;5074373;28;20488;-58
2024/02/23 07:31:30;;;;;;;0.50;0.20;;;6.30;99.90;;;;;;5084301;28;20518;-53
2024/02/23 07:33:58;;;;;;;0.40;0.20;;;6.30;99.90;;;;;;5095030;28;20497;-56
2024/02/23 07:36:28;;;;;;;0.40;0.20;;;6.50;1.00;;;;;;5091368;28;20716;-53
2024/02/23 07:38:55;;;;;;;0.60;0.20;;;6.50;99.90;;;;;;5072667;28;20419;-57
2024/02/23 07:41:23;;;;;;;0.90;0.20;;;6.50;1.00;;;;;;5067031;28;20434;-56
2024/02/23 07:43:50;;;;;;;0.70;0.20;;;6.70;1.00;;;;;;5061943;28;20449;-58
2024/02/23 07:46:17;;;;;;;1.60;0.30;;;6.90;1.00;;;;;;5054535;28;20480;-58
2024/02/23 07:48:44;;;;;;;0.50;0.20;;;7.00;99.90;;;;;;5063540;28;20439;-58
2024/02/23 07:51:12;;;;;;;0.97;0.20;;;6.80;99.90;;;;;;5076709;28;21120;-58
2024/02/23 07:53:39;;;;;;;0.70;0.13;;;6.70;1.00;;;;;;5071999;28;20442;-59
2024/02/23 07:56:08;;;;;;;0.68;0.20;;;6.50;99.90;;;;;;5069654;28;20776;-58
2024/02/23 07:58:35;;;;;;;0.40;0.20;;;6.50;99.90;;;;;;5090734;28;20458;-58
2024/02/23 08:01:04;;;;;;;0.80;0.30;;;6.40;1.00;;;;;;5087906;28;20434;-62
2024/02/23 08:03:31;;;;;;;1.50;0.20;;;6.30;1.00;;;;;;5083999;28;20833;-59
2024/02/23 08:05:58;;;;;;;2.40;0.20;;;6.30;99.90;;;;;;5065775;28;21080;-59
2024/02/23 08:08:27;;;;;;;1.40;0.20;;;6.20;99.90;;;;;;5096066;28;20513;-58
2024/02/23 08:10:54;;;;;;;0.70;0.20;;;6.30;1.00;;;;;;5084001;28;20493;-58
2024/02/23 08:13:21;;;;;;;0.30;0.13;;;6.40;99.90;;;;;;5075604;28;20510;-59
2024/02/23 08:15:48;;;;;;;0.80;0.30;;;6.40;1.00;;;;;;5073652;28;20516;-59
2024/02/23 08:18:15;;;;;;;1.50;0.20;;;6.40;1.00;;;;;;5070139;28;20518;-59
2024/02/23 08:20:42;;;;;;;0.60;0.20;;;6.40;1.00;;;;;;5077521;28;20511;-59
2024/02/23 08:23:09;;;;;;;0.80;0.20;;;6.40;1.00;;;;;;5069745;28;20441;-59
2024/02/23 08:25:38;;;;;;;0.70;0.20;;;6.30;99.90;;;;;;5061859;28;20467;-60
2024/02/23 08:28:05;;;;;;;1.20;0.20;;;6.60;1.00;;;;;;5075199;28;20426;-60
2024/02/23 08:30:33;;;;;;;1.50;0.93;;;6.80;99.90;;;;;;5074665;28;21038;-59
2024/02/23 08:33:00;;;;;;;1.20;0.40;;;6.90;1.00;;;;;;5046451;28;20430;-60
2024/02/23 08:35:27;;;;;;;0.50;0.20;;;7.00;1.00;;;;;;5034909;28;20524;-60
2024/02/23 08:37:54;;;;;;;0.70;0.30;;;6.80;99.90;;;;;;5064462;28;20530;-60
2024/02/23 08:40:21;;;;;;;0.40;0.20;;;6.60;1.00;;;;;;5069843;28;20424;-61
2024/02/23 08:42:51;;;;;;;0.63;0.20;;;6.50;99.90;;;;;;5057486;28;20446;-62
2024/02/23 08:45:19;;;;;;;0.77;0.20;;;6.30;1.00;;;;;;5056442;28;20470;-60
2024/02/23 08:47:46;;;;;;;0.80;0.30;;;6.30;99.90;;;;;;5054541;28;20835;-59
2024/02/23 08:50:13;;;;;;;0.80;0.30;;;6.30;99.90;;;;;;5056122;28;20438;-59
2024/02/23 08:52:40;;;;;;;0.50;0.20;;;6.20;99.90;;;;;;5057536;28;20425;-60
2024/02/23 08:55:07;;;;;;;0.50;0.20;;;6.20;99.90;;;;;;5057424;28;20504;-59
2024/02/23 08:57:34;;;;;;;0.90;0.20;;;6.10;1.00;;;;;;5048020;28;20437;-59
2024/02/23 09:00:04;;;;;;;0.65;0.25;;;6.20;1.00;;;;;;5048313;28;20436;-59
2024/02/23 09:02:32;;;;;;;0.60;0.20;;;6.10;1.00;;;;;;5063918;28;20737;-58
2024/02/23 09:04:59;;;;;;;1.30;0.20;;;6.20;1.00;;;;;;5078567;28;20438;-59
2024/02/23 09:07:26;;;;;;;0.40;0.10;;;6.20;1.00;;;;;;5051807;28;20456;-59
2024/02/23 09:09:54;;;;;;;0.40;0.20;;;6.20;1.00;;;;;;5056657;28;20499;-59
2024/02/23 09:12:21;;;;;;;1.13;0.20;;;6.20;99.90;;;;;;5042409;28;20525;-58
2024/02/23 09:14:48;;;;;;;0.80;0.20;;;6.30;1.00;;;;;;5048361;28;20520;-58
2024/02/23 09:17:18;;;;;;;0.50;0.20;;;6.30;1.00;;;;;;5056844;28;20437;-59
2024/02/23 09:19:45;;;;;;;1.30;0.20;;;6.30;1.00;;;;;;5043314;28;20435;-59
2024/02/23 09:22:12;;;;;;;0.50;0.20;;;6.30;99.90;;;;;;5040389;28;20534;-59
2024/02/23 09:24:40;;;;;;;1.60;0.20;;;6.30;1.00;;;;;;5048048;28;20454;-59
2024/02/23 09:27:07;;;;;;;2.40;0.30;;;6.20;1.00;;;;;;5056766;28;20465;-58
2024/02/23 09:29:34;;;;;;;1.90;0.20;;;6.20;1.00;;;;;;5050432;28;20645;-59
2024/02/23 09:32:01;;;;;;;0.90;0.30;;;6.30;1.00;;;;;;5067549;28;20533;-59
2024/02/23 09:34:30;;;;;;;1.05;0.20;;;6.30;1.00;;;;;;5077959;28;20412;-59
2024/02/23 09:36:57;;;;;;;1.70;0.20;;;6.40;99.90;;;;;;5065464;28;20433;-59
2024/02/23 09:39:26;;;;;;;0.80;0.20;;;6.40;1.00;;;;;;5063002;28;20530;-59
2024/02/23 09:41:54;;;;;;;0.50;0.20;;;6.40;1.00;;;;;;5063757;28;20496;-59
2024/02/23 09:44:22;;;;;;;1.20;0.30;;;6.30;99.90;;;;;;5072927;28;20435;-59
2024/02/23 09:46:50;;;;;;;1.20;0.20;;;6.30;99.90;;;;;;5069756;28;20511;-59
2024/02/23 09:49:17;;;;;;;0.40;0.20;;;6.30;99.90;;;;;;5075254;28;20486;-58
2024/02/23 09:51:45;;;;;;;1.80;0.20;;;6.30;99.90;;;;;;5072975;28;20838;-61
2024/02/23 09:54:13;;;;;;;0.90;0.13;;;6.50;99.90;;;;;;5064161;28;20432;-59
2024/02/23 09:56:41;;;;;;;0.70;0.20;;;6.60;99.90;;;;;;5065580;28;20423;-59
2024/02/23 09:59:08;;;;;;;0.98;0.20;;;6.60;99.90;;;;;;5067754;28;20491;-59
2024/02/23 10:01:36;;;;;;;0.88;0.20;;;6.70;99.90;;;;;;5070541;28;20481;-59
2024/02/23 10:04:04;;;;;;;2.25;0.30;;;6.80;46.20;;;;;;5058894;28;20417;-60
2024/02/23 10:06:31;;;;;;;0.90;0.20;;;7.00;1.00;;;;;;5062484;28;20501;-61
2024/02/23 10:08:59;;;;;;;0.77;0.20;;;7.10;1.00;;;;;;5062144;28;20583;-60
2024/02/23 10:11:26;;;;;;;0.60;0.20;;;7.10;1.00;;;;;;5054839;28;20539;-60
2024/02/23 10:13:53;;;;;;;0.75;0.20;;;7.20;1.00;;;;;;5061604;28;20805;-59
2024/02/23 10:16:21;;;;;;;0.50;0.20;;;7.20;1.00;;;;;;5074689;28;20451;-60
2024/02/23 10:18:48;;;;;;;0.85;0.20;;;7.30;1.00;;;;;;5074816;28;20416;-60
2024/02/23 10:21:16;;;;;;;0.60;0.20;;;7.30;99.90;;;;;;5075338;28;20806;-60
2024/02/23 10:23:44;;;;;;;0.90;0.30;;;7.30;99.90;;;;;;5075300;28;20489;-59
2024/02/23 10:26:18;;;;;;;0.57;0.20;;;7.50;99.90;;;;;;5075908;28;20455;-60
2024/02/23 10:28:47;;;;;;;0.33;0.13;;;7.40;99.90;;;;;;5075802;28;20439;-60
2024/02/23 10:31:14;;;;;;;0.68;0.20;;;7.50;99.90;;;;;;5076578;28;20432;-60
2024/02/23 10:33:41;;;;;;;0.40;0.10;;;7.60;99.90;;;;;;5080196;28;20474;-59
2024/02/23 10:36:09;;;;;;;0.70;0.20;;;7.80;99.90;;;;;;5080107;28;20942;-59
2024/02/23 10:38:38;;;;;;;0.70;0.20;;;7.90;99.90;;;;;;5084991;28;20509;-60
2024/02/23 10:41:07;;;;;;;0.50;0.22;;;8.00;99.90;;;;;;5096467;28;20508;-60
2024/02/23 10:43:42;;;;;;;1.10;0.20;;;8.10;99.90;;;;;;5094092;28;20696;-60
2024/02/23 10:46:12;;;;;;;1.10;0.20;;;8.30;99.90;;;;;;5072998;28;20453;-60
2024/02/23 10:48:41;;;;;;;1.00;0.30;;;8.20;99.90;;;;;;5078546;28;20435;-60
2024/02/23 10:51:09;;;;;;;0.50;0.20;;;8.10;99.90;;;;;;5075387;28;20505;-60
2024/02/23 10:53:37;;;;;;;0.60;0.20;;;8.20;99.90;;;;;;5073574;28;20450;-60
2024/02/23 10:56:05;;;;;;;0.55;0.20;;;8.30;99.90;;;;;;5080522;28;20422;-60
2024/02/23 10:58:32;;;;;;;0.60;0.20;;;8.40;99.90;;;;;;5095137;28;20773;-59
2024/02/23 11:01:02;;;;;;;0.60;0.20;;;8.30;99.90;;;;;;5094763;28;20446;-60
2024/02/23 11:03:30;;;;;;;0.70;0.20;;;8.30;99.90;;;;;;5094854;28;20475;-60
2024/02/23 11:05:57;;;;;;;1.10;0.20;;;8.10;99.90;;;;;;5095650;28;20422;-60
2024/02/23 11:08:24;;;;;;;0.70;0.20;;;8.00;99.90;;;;;;5095917;28;20422;-60
2024/02/23 11:10:52;;;;;;;0.75;0.17;;;8.00;99.90;;;;;;5095721;28;20473;-60
2024/02/23 11:13:19;;;;;;;0.50;0.20;;;8.10;99.90;;;;;;5095689;28;20417;-60
2024/02/23 11:15:45;;;;;;;0.40;0.10;;;8.20;99.90;;;;;;5076352;28;20442;-60
2024/02/23 11:18:28;;;;;;;1.58;0.20;;;8.20;99.90;;;;;;5076708;28;20463;-60
2024/02/23 11:20:56;;;;;;;0.57;0.20;;;8.20;99.90;;;;;;5075764;28;20419;-60
2024/02/23 11:23:25;;;;;;;0.80;0.20;;;8.20;99.90;;;;;;5074536;28;20423;-60
2024/02/23 11:26:06;;;;;;;1.40;0.20;;;8.10;99.90;;;;;;5074834;28;20435;-60
2024/02/23 11:28:33;;;;;;;1.20;0.20;;;8.20;95.60;;;;;;5074214;28;20462;-60
2024/02/23 11:31:02;;;;;;;0.60;0.30;;;8.20;97.30;;;;;;5072941;28;20435;-60
2024/02/23 11:33:35;;;;;;;0.70;0.30;;;8.20;95.50;;;;;;5074708;28;20802;-60
2024/02/23 11:36:09;;;;;;;0.60;0.20;;;8.20;99.90;;;;;;5074395;28;20522;-60
2024/02/23 11:38:37;;;;;;;0.60;0.10;;;8.30;99.90;;;;;;5074957;28;20522;-61
2024/02/23 11:41:04;;;;;;;1.50;0.30;;;8.50;96.80;;;;;;5090711;28;20417;-60
2024/02/23 11:43:31;;;;;;;0.73;0.20;;;8.60;46.20;;;;;;5093524;28;20509;-59
2024/02/23 11:45:58;;;;;;;1.10;0.20;;;8.60;64.10;;;;;;5073834;28;20458;-60
2024/02/23 11:48:25;;;;;;;1.50;0.20;;;8.70;22.00;;;;;;5075672;28;20438;-59
2024/02/23 11:50:53;;;;;;;1.85;0.20;;;8.70;30.00;;;;;;5074773;28;20444;-59
2024/02/23 11:53:21;;;;;;;0.40;0.10;;;8.60;47.30;;;;;;5075602;28;20763;-59
2024/02/23 11:55:49;;;;;;;1.80;0.20;;;8.60;40.60;;;;;;5074240;28;20498;-59
2024/02/23 11:58:18;;;;;;;0.70;0.20;;;8.60;18.60;;;;;;5074585;28;20912;-59
2024/02/23 12:00:45;;;;;;;0.40;0.10;;;8.60;29.30;;;;;;5074443;28;20569;-59
2024/02/23 12:03:12;;;;;;;1.50;0.30;;;8.50;21.50;;;;;;5074923;28;20489;-63
2024/02/23 12:05:39;;;;;;;0.40;0.10;;;8.60;26.40;;;;;;5074887;28;20423;-60
2024/02/23 12:08:08;;;;;;;1.02;0.20;;;8.70;32.60;;;;;;5073986;28;20427;-60
2024/02/23 12:10:36;;;;;;;0.70;0.20;;;8.80;26.90;;;;;;5075875;28;20472;-60
2024/02/23 12:13:03;;;;;;;0.40;0.20;;;8.70;10.90;;;;;;5068273;28;20701;-59
2024/02/23 12:15:31;;;;;;;0.68;0.30;;;8.90;19.70;;;;;;5078218;28;20800;-60
2024/02/23 12:17:59;;;;;;;0.60;0.30;;;9.00;1.00;;;;;;5095657;28;20425;-60
2024/02/23 12:20:26;;;;;;;1.05;0.10;;;9.10;1.00;;;;;;5099207;28;20433;-59
2024/02/23 12:22:57;;;;;;;0.43;0.20;;;9.10;1.00;;;;;;5098397;28;20804;-60
2024/02/23 12:25:25;;;;;;;0.60;0.20;;;9.20;1.00;;;;;;5099264;28;20651;-60
2024/02/23 12:27:56;;;;;;;0.70;0.20;;;9.10;1.00;;;;;;5099482;28;20425;-59
2024/02/23 12:30:23;;;;;;;0.70;0.20;;;9.00;1.00;;;;;;5099217;28;20435;-60
2024/02/23 12:32:50;;;;;;;1.40;0.20;;;9.00;1.00;;;;;;5098003;28;20532;-60
2024/02/23 12:35:17;;;;;;;0.82;0.20;;;9.10;1.00;;;;;;5097940;28;20510;-59
2024/02/23 12:37:45;;;;;;;1.40;0.30;;;9.30;3.40;;;;;;5099018;28;20470;-59
2024/02/23 12:40:12;;;;;;;0.60;0.20;;;9.50;1.00;;;;;;5098643;28;20418;-60
2024/02/23 12:42:40;;;;;;;0.60;0.30;;;9.50;1.00;;;;;;5093475;28;20526;-61
2024/02/23 12:45:08;;;;;;;1.50;0.20;;;9.50;1.00;;;;;;5096329;28;20910;-59
2024/02/23 12:47:35;;;;;;;1.30;0.20;;;9.50;1.00;;;;;;5096624;28;20422;-59
2024/02/23 12:50:01;;;;;;;1.20;0.20;;;9.40;1.00;;;;;;5090343;28;20417;-60
2024/02/23 12:52:28;;;;;;;0.50;0.20;;;9.30;1.00;;;;;;5077822;28;20766;-60
2024/02/23 12:54:57;;;;;;;1.30;0.20;;;9.20;1.00;;;;;;5083801;28;20511;-59
2024/02/23 12:57:24;;;;;;;1.20;0.20;;;9.20;1.00;;;;;;5078915;28;20518;-60
2024/02/23 12:59:53;;;;;;;0.45;0.13;;;9.20;1.00;;;;;;5078271;28;20427;-60
2024/02/23 13:02:21;;;;;;;1.10;0.20;;;9.20;1.00;;;;;;5078045;28;20501;-60
2024/02/23 13:04:49;;;;;;;0.55;0.20;;;9.10;1.00;;;;;;5077891;28;20427;-60